sensor_id;sensor_type;location;lat;lon;timestamp;P1;durP1;ratioP1;P2;durP2;ratioP2
17794;SDS011;9021;50.882;4.326;2023-04-03T00:00:59;13.18;;;5.30;;
17794;SDS011;9021;50.882;4.326;2023-04-03T00:03:25;7.00;;;5.30;;
17794;SDS011;9021;50.882;4.326;2023-04-03T00:05:50;6.85;;;5.43;;
17794;SDS011;9021;50.882;4.326;2023-04-03T00:08:16;6.13;;;5.15;;
17794;SDS011;9021;50.882;4.326;2023-04-03T00:10:42;5.85;;;4.63;;
17794;SDS011;9021;50.882;4.326;2023-04-03T00:13:08;5.57;;;4.82;;
17794;SDS011;9021;50.882;4.326;2023-04-03T00:15:34;6.60;;;4.43;;
17794;SDS011;9021;50.882;4.326;2023-04-03T00:18:01;8.23;;;4.65;;
17794;SDS011;9021;50.882;4.326;2023-04-03T00:20:27;6.28;;;4.63;;
17794;SDS011;9021;50.882;4.326;2023-04-03T00:22:53;9.98;;;5.60;;
17794;SDS011;9021;50.882;4.326;2023-04-03T00:25:19;7.10;;;4.80;;
17794;SDS011;9021;50.882;4.326;2023-04-03T00:27:44;4.88;;;4.30;;
17794;SDS011;9021;50.882;4.326;2023-04-03T00:30:11;9.20;;;4.72;;
17794;SDS011;9021;50.882;4.326;2023-04-03T00:32:39;6.55;;;4.88;;
17794;SDS011;9021;50.882;4.326;2023-04-03T00:35:05;6.40;;;4.93;;
17794;SDS011;9021;50.882;4.326;2023-04-03T00:37:31;11.18;;;4.35;;
17794;SDS011;9021;50.882;4.326;2023-04-03T00:39:57;6.40;;;4.15;;
17794;SDS011;9021;50.882;4.326;2023-04-03T00:42:23;7.25;;;4.78;;
17794;SDS011;9021;50.882;4.326;2023-04-03T00:47:18;4.60;;;4.10;;
17794;SDS011;9021;50.882;4.326;2023-04-03T00:49:44;4.65;;;4.25;;
17794;SDS011;9021;50.882;4.326;2023-04-03T00:52:13;7.32;;;4.70;;
17794;SDS011;9021;50.882;4.326;2023-04-03T00:54:42;5.57;;;4.57;;
17794;SDS011;9021;50.882;4.326;2023-04-03T00:57:10;7.55;;;4.82;;
17794;SDS011;9021;50.882;4.326;2023-04-03T00:59:41;6.40;;;4.25;;
17794;SDS011;9021;50.882;4.326;2023-04-03T01:02:10;6.80;;;4.57;;
17794;SDS011;9021;50.882;4.326;2023-04-03T01:04:36;7.25;;;5.13;;
17794;SDS011;9021;50.882;4.326;2023-04-03T01:07:05;7.30;;;4.75;;
17794;SDS011;9021;50.882;4.326;2023-04-03T01:09:34;6.68;;;4.85;;
17794;SDS011;9021;50.882;4.326;2023-04-03T01:12:20;7.72;;;4.60;;
17794;SDS011;9021;50.882;4.326;2023-04-03T01:14:46;7.82;;;4.60;;
17794;SDS011;9021;50.882;4.326;2023-04-03T01:17:34;6.10;;;4.40;;
17794;SDS011;9021;50.882;4.326;2023-04-03T01:25:35;6.70;;;4.72;;
17794;SDS011;9021;50.882;4.326;2023-04-03T01:28:04;6.22;;;4.80;;
17794;SDS011;9021;50.882;4.326;2023-04-03T01:30:32;8.05;;;4.88;;
17794;SDS011;9021;50.882;4.326;2023-04-03T01:33:06;8.57;;;4.25;;
17794;SDS011;9021;50.882;4.326;2023-04-03T01:35:31;6.55;;;4.88;;
17794;SDS011;9021;50.882;4.326;2023-04-03T01:37:57;7.53;;;5.10;;
17794;SDS011;9021;50.882;4.326;2023-04-03T01:40:23;5.53;;;4.57;;
17794;SDS011;9021;50.882;4.326;2023-04-03T01:42:48;6.00;;;4.30;;
17794;SDS011;9021;50.882;4.326;2023-04-03T01:45:14;6.53;;;4.85;;
17794;SDS011;9021;50.882;4.326;2023-04-03T01:47:40;6.25;;;4.25;;
17794;SDS011;9021;50.882;4.326;2023-04-03T01:50:07;8.45;;;4.82;;
17794;SDS011;9021;50.882;4.326;2023-04-03T01:52:33;5.93;;;4.68;;
17794;SDS011;9021;50.882;4.326;2023-04-03T01:54:58;9.20;;;5.15;;
17794;SDS011;9021;50.882;4.326;2023-04-03T01:57:24;6.88;;;4.93;;
17794;SDS011;9021;50.882;4.326;2023-04-03T01:59:50;7.72;;;5.32;;
17794;SDS011;9021;50.882;4.326;2023-04-03T02:02:16;6.75;;;5.18;;
17794;SDS011;9021;50.882;4.326;2023-04-03T02:04:42;5.75;;;4.50;;
17794;SDS011;9021;50.882;4.326;2023-04-03T02:07:07;8.60;;;5.22;;
17794;SDS011;9021;50.882;4.326;2023-04-03T02:09:33;8.45;;;5.20;;
17794;SDS011;9021;50.882;4.326;2023-04-03T02:11:59;9.85;;;5.40;;
17794;SDS011;9021;50.882;4.326;2023-04-03T02:14:25;7.30;;;5.07;;
17794;SDS011;9021;50.882;4.326;2023-04-03T02:16:52;8.73;;;5.47;;
17794;SDS011;9021;50.882;4.326;2023-04-03T02:19:18;6.70;;;4.63;;
17794;SDS011;9021;50.882;4.326;2023-04-03T02:21:43;8.90;;;5.25;;
17794;SDS011;9021;50.882;4.326;2023-04-03T02:24:09;8.27;;;5.00;;
17794;SDS011;9021;50.882;4.326;2023-04-03T02:26:35;6.72;;;4.53;;
17794;SDS011;9021;50.882;4.326;2023-04-03T02:29:01;10.38;;;4.82;;
17794;SDS011;9021;50.882;4.326;2023-04-03T02:31:26;6.35;;;4.80;;
17794;SDS011;9021;50.882;4.326;2023-04-03T02:33:52;9.30;;;5.53;;
17794;SDS011;9021;50.882;4.326;2023-04-03T02:36:17;7.90;;;4.88;;
17794;SDS011;9021;50.882;4.326;2023-04-03T02:38:43;8.60;;;4.80;;
17794;SDS011;9021;50.882;4.326;2023-04-03T02:41:09;7.72;;;5.22;;
17794;SDS011;9021;50.882;4.326;2023-04-03T02:43:36;8.90;;;4.95;;
17794;SDS011;9021;50.882;4.326;2023-04-03T02:46:02;9.13;;;4.50;;
17794;SDS011;9021;50.882;4.326;2023-04-03T02:48:29;9.98;;;4.60;;
17794;SDS011;9021;50.882;4.326;2023-04-03T02:50:55;6.63;;;5.03;;
17794;SDS011;9021;50.882;4.326;2023-04-03T02:53:21;5.65;;;4.70;;
17794;SDS011;9021;50.882;4.326;2023-04-03T02:55:46;5.93;;;4.82;;
17794;SDS011;9021;50.882;4.326;2023-04-03T02:58:12;6.65;;;4.63;;
17794;SDS011;9021;50.882;4.326;2023-04-03T03:00:38;7.78;;;4.88;;
17794;SDS011;9021;50.882;4.326;2023-04-03T03:03:03;6.95;;;4.45;;
17794;SDS011;9021;50.882;4.326;2023-04-03T03:05:29;5.63;;;4.75;;
17794;SDS011;9021;50.882;4.326;2023-04-03T03:07:55;6.10;;;4.32;;
17794;SDS011;9021;50.882;4.326;2023-04-03T03:10:21;8.85;;;4.50;;
17794;SDS011;9021;50.882;4.326;2023-04-03T03:15:14;8.90;;;4.38;;
17794;SDS011;9021;50.882;4.326;2023-04-03T03:17:40;5.95;;;4.05;;
17794;SDS011;9021;50.882;4.326;2023-04-03T03:20:06;6.80;;;4.22;;
17794;SDS011;9021;50.882;4.326;2023-04-03T03:22:33;4.97;;;4.05;;
17794;SDS011;9021;50.882;4.326;2023-04-03T03:24:59;6.80;;;4.78;;
17794;SDS011;9021;50.882;4.326;2023-04-03T03:27:26;7.28;;;4.15;;
17794;SDS011;9021;50.882;4.326;2023-04-03T03:29:51;7.03;;;4.75;;
17794;SDS011;9021;50.882;4.326;2023-04-03T03:32:17;7.32;;;4.43;;
17794;SDS011;9021;50.882;4.326;2023-04-03T03:34:43;7.68;;;4.55;;
17794;SDS011;9021;50.882;4.326;2023-04-03T03:37:08;5.32;;;4.47;;
17794;SDS011;9021;50.882;4.326;2023-04-03T03:39:34;5.18;;;4.28;;
17794;SDS011;9021;50.882;4.326;2023-04-03T03:42:00;8.52;;;4.45;;
17794;SDS011;9021;50.882;4.326;2023-04-03T03:44:25;7.53;;;4.93;;
17794;SDS011;9021;50.882;4.326;2023-04-03T03:46:52;5.90;;;4.65;;
17794;SDS011;9021;50.882;4.326;2023-04-03T03:49:18;6.93;;;4.90;;
17794;SDS011;9021;50.882;4.326;2023-04-03T03:51:44;5.28;;;4.38;;
17794;SDS011;9021;50.882;4.326;2023-04-03T03:56:36;9.70;;;5.30;;
17794;SDS011;9021;50.882;4.326;2023-04-03T03:59:01;7.57;;;5.10;;
17794;SDS011;9021;50.882;4.326;2023-04-03T04:01:27;7.43;;;4.57;;
17794;SDS011;9021;50.882;4.326;2023-04-03T04:03:53;6.38;;;4.85;;
17794;SDS011;9021;50.882;4.326;2023-04-03T04:06:21;6.72;;;5.07;;
17794;SDS011;9021;50.882;4.326;2023-04-03T04:08:47;6.53;;;5.07;;
17794;SDS011;9021;50.882;4.326;2023-04-03T04:11:13;6.70;;;5.20;;
17794;SDS011;9021;50.882;4.326;2023-04-03T04:13:38;9.02;;;5.43;;
17794;SDS011;9021;50.882;4.326;2023-04-03T04:16:04;7.10;;;4.90;;
17794;SDS011;9021;50.882;4.326;2023-04-03T04:18:30;11.10;;;6.13;;
17794;SDS011;9021;50.882;4.326;2023-04-03T04:20:56;8.23;;;5.72;;
17794;SDS011;9021;50.882;4.326;2023-04-03T04:23:22;14.23;;;5.93;;
17794;SDS011;9021;50.882;4.326;2023-04-03T04:25:47;12.20;;;5.53;;
17794;SDS011;9021;50.882;4.326;2023-04-03T04:28:14;12.32;;;5.75;;
17794;SDS011;9021;50.882;4.326;2023-04-03T04:30:40;8.02;;;5.45;;
17794;SDS011;9021;50.882;4.326;2023-04-03T04:33:06;7.85;;;5.47;;
17794;SDS011;9021;50.882;4.326;2023-04-03T04:35:32;9.88;;;5.68;;
17794;SDS011;9021;50.882;4.326;2023-04-03T04:37:58;10.00;;;7.50;;
17794;SDS011;9021;50.882;4.326;2023-04-03T04:40:24;9.70;;;5.82;;
17794;SDS011;9021;50.882;4.326;2023-04-03T04:42:50;13.98;;;6.00;;
17794;SDS011;9021;50.882;4.326;2023-04-03T04:45:16;7.10;;;5.15;;
17794;SDS011;9021;50.882;4.326;2023-04-03T04:47:42;7.97;;;6.03;;
17794;SDS011;9021;50.882;4.326;2023-04-03T04:50:08;6.43;;;5.63;;
17794;SDS011;9021;50.882;4.326;2023-04-03T04:52:34;10.48;;;6.20;;
17794;SDS011;9021;50.882;4.326;2023-04-03T04:54:59;12.00;;;6.88;;
17794;SDS011;9021;50.882;4.326;2023-04-03T04:57:25;8.20;;;6.13;;
17794;SDS011;9021;50.882;4.326;2023-04-03T04:59:51;13.05;;;6.53;;
17794;SDS011;9021;50.882;4.326;2023-04-03T05:02:16;8.10;;;6.55;;
17794;SDS011;9021;50.882;4.326;2023-04-03T05:04:42;9.10;;;6.70;;
17794;SDS011;9021;50.882;4.326;2023-04-03T05:07:07;9.52;;;6.80;;
17794;SDS011;9021;50.882;4.326;2023-04-03T05:09:33;9.45;;;6.70;;
17794;SDS011;9021;50.882;4.326;2023-04-03T05:11:59;14.48;;;7.22;;
17794;SDS011;9021;50.882;4.326;2023-04-03T05:14:25;9.30;;;7.00;;
17794;SDS011;9021;50.882;4.326;2023-04-03T05:16:50;9.27;;;7.30;;
17794;SDS011;9021;50.882;4.326;2023-04-03T05:19:19;9.27;;;6.88;;
17794;SDS011;9021;50.882;4.326;2023-04-03T05:21:46;10.93;;;7.93;;
17794;SDS011;9021;50.882;4.326;2023-04-03T05:26:37;13.00;;;8.45;;
17794;SDS011;9021;50.882;4.326;2023-04-03T05:29:03;9.32;;;6.90;;
17794;SDS011;9021;50.882;4.326;2023-04-03T05:31:29;11.25;;;7.43;;
17794;SDS011;9021;50.882;4.326;2023-04-03T05:33:55;10.65;;;7.07;;
17794;SDS011;9021;50.882;4.326;2023-04-03T05:36:20;11.27;;;7.68;;
17794;SDS011;9021;50.882;4.326;2023-04-03T05:38:46;9.23;;;7.53;;
17794;SDS011;9021;50.882;4.326;2023-04-03T05:41:12;10.00;;;7.38;;
17794;SDS011;9021;50.882;4.326;2023-04-03T05:43:39;10.90;;;7.25;;
17794;SDS011;9021;50.882;4.326;2023-04-03T05:46:09;10.65;;;7.25;;
17794;SDS011;9021;50.882;4.326;2023-04-03T05:48:36;15.32;;;8.55;;
17794;SDS011;9021;50.882;4.326;2023-04-03T05:51:02;13.90;;;7.45;;
17794;SDS011;9021;50.882;4.326;2023-04-03T05:53:28;9.18;;;6.70;;
17794;SDS011;9021;50.882;4.326;2023-04-03T05:55:56;11.02;;;7.50;;
17794;SDS011;9021;50.882;4.326;2023-04-03T05:58:21;10.10;;;7.53;;
17794;SDS011;9021;50.882;4.326;2023-04-03T06:00:47;10.07;;;6.85;;
17794;SDS011;9021;50.882;4.326;2023-04-03T06:03:13;10.05;;;6.90;;
17794;SDS011;9021;50.882;4.326;2023-04-03T06:05:39;10.52;;;6.35;;
17794;SDS011;9021;50.882;4.326;2023-04-03T06:08:04;8.32;;;6.30;;
17794;SDS011;9021;50.882;4.326;2023-04-03T06:12:56;8.55;;;5.60;;
17794;SDS011;9021;50.882;4.326;2023-04-03T06:15:21;11.55;;;5.57;;
17794;SDS011;9021;50.882;4.326;2023-04-03T06:17:47;9.68;;;6.43;;
17794;SDS011;9021;50.882;4.326;2023-04-03T06:20:13;8.40;;;5.47;;
17794;SDS011;9021;50.882;4.326;2023-04-03T06:22:39;9.18;;;5.65;;
17794;SDS011;9021;50.882;4.326;2023-04-03T06:25:06;18.73;;;6.63;;
17794;SDS011;9021;50.882;4.326;2023-04-03T06:27:34;13.00;;;6.15;;
17794;SDS011;9021;50.882;4.326;2023-04-03T06:30:00;8.13;;;5.97;;
17794;SDS011;9021;50.882;4.326;2023-04-03T06:32:25;10.63;;;6.10;;
17794;SDS011;9021;50.882;4.326;2023-04-03T06:34:51;10.98;;;5.97;;
17794;SDS011;9021;50.882;4.326;2023-04-03T06:37:19;9.43;;;6.68;;
17794;SDS011;9021;50.882;4.326;2023-04-03T06:39:46;8.63;;;5.93;;
17794;SDS011;9021;50.882;4.326;2023-04-03T06:42:12;6.60;;;5.28;;
17794;SDS011;9021;50.882;4.326;2023-04-03T06:44:38;9.75;;;5.70;;
17794;SDS011;9021;50.882;4.326;2023-04-03T06:47:04;9.18;;;5.60;;
17794;SDS011;9021;50.882;4.326;2023-04-03T06:49:30;8.65;;;5.38;;
17794;SDS011;9021;50.882;4.326;2023-04-03T06:51:57;7.38;;;4.63;;
17794;SDS011;9021;50.882;4.326;2023-04-03T06:54:23;7.63;;;4.60;;
17794;SDS011;9021;50.882;4.326;2023-04-03T06:56:48;9.82;;;5.30;;
17794;SDS011;9021;50.882;4.326;2023-04-03T06:59:15;11.02;;;4.97;;
17794;SDS011;9021;50.882;4.326;2023-04-03T07:01:40;6.82;;;4.68;;
17794;SDS011;9021;50.882;4.326;2023-04-03T07:04:07;6.65;;;4.63;;
17794;SDS011;9021;50.882;4.326;2023-04-03T07:08:59;6.50;;;4.50;;
17794;SDS011;9021;50.882;4.326;2023-04-03T07:11:25;6.95;;;4.30;;
17794;SDS011;9021;50.882;4.326;2023-04-03T07:16:17;7.70;;;4.35;;
17794;SDS011;9021;50.882;4.326;2023-04-03T07:18:42;7.18;;;4.80;;
17794;SDS011;9021;50.882;4.326;2023-04-03T07:21:08;5.75;;;4.35;;
17794;SDS011;9021;50.882;4.326;2023-04-03T07:23:33;7.43;;;4.65;;
17794;SDS011;9021;50.882;4.326;2023-04-03T07:25:59;6.45;;;4.28;;
17794;SDS011;9021;50.882;4.326;2023-04-03T07:28:25;6.63;;;4.22;;
17794;SDS011;9021;50.882;4.326;2023-04-03T07:33:18;8.57;;;4.18;;
17794;SDS011;9021;50.882;4.326;2023-04-03T07:35:45;6.22;;;4.10;;
17794;SDS011;9021;50.882;4.326;2023-04-03T07:38:11;5.75;;;3.90;;
17794;SDS011;9021;50.882;4.326;2023-04-03T07:43:02;8.15;;;4.15;;
17794;SDS011;9021;50.882;4.326;2023-04-03T07:45:30;10.50;;;4.78;;
17794;SDS011;9021;50.882;4.326;2023-04-03T07:47:56;7.25;;;3.92;;
17794;SDS011;9021;50.882;4.326;2023-04-03T07:52:48;5.15;;;3.75;;
17794;SDS011;9021;50.882;4.326;2023-04-03T07:55:15;5.18;;;3.42;;
17794;SDS011;9021;50.882;4.326;2023-04-03T08:00:07;8.13;;;3.50;;
17794;SDS011;9021;50.882;4.326;2023-04-03T08:02:34;22.17;;;4.75;;
17794;SDS011;9021;50.882;4.326;2023-04-03T08:07:25;7.65;;;3.97;;
17794;SDS011;9021;50.882;4.326;2023-04-03T08:12:17;9.98;;;3.60;;
17794;SDS011;9021;50.882;4.326;2023-04-03T08:17:08;7.00;;;3.67;;
17794;SDS011;9021;50.882;4.326;2023-04-03T08:19:37;12.75;;;3.65;;
17794;SDS011;9021;50.882;4.326;2023-04-03T08:22:03;5.20;;;3.75;;
17794;SDS011;9021;50.882;4.326;2023-04-03T08:24:30;6.97;;;3.92;;
17794;SDS011;9021;50.882;4.326;2023-04-03T08:26:56;7.78;;;4.70;;
17794;SDS011;9021;50.882;4.326;2023-04-03T08:29:22;7.43;;;3.78;;
17794;SDS011;9021;50.882;4.326;2023-04-03T08:31:49;6.50;;;3.85;;
17794;SDS011;9021;50.882;4.326;2023-04-03T08:34:15;6.53;;;4.10;;
17794;SDS011;9021;50.882;4.326;2023-04-03T08:36:42;7.63;;;4.70;;
17794;SDS011;9021;50.882;4.326;2023-04-03T08:46:47;6.38;;;4.53;;
17794;SDS011;9021;50.882;4.326;2023-04-03T08:49:27;5.57;;;3.78;;
17794;SDS011;9021;50.882;4.326;2023-04-03T08:51:53;6.05;;;3.35;;
17794;SDS011;9021;50.882;4.326;2023-04-03T08:54:30;6.20;;;4.05;;
17794;SDS011;9021;50.882;4.326;2023-04-03T08:57:00;6.70;;;3.60;;
17794;SDS011;9021;50.882;4.326;2023-04-03T08:59:32;4.50;;;3.20;;
17794;SDS011;9021;50.882;4.326;2023-04-03T09:02:02;5.70;;;2.95;;
17794;SDS011;9021;50.882;4.326;2023-04-03T09:04:43;6.38;;;3.42;;
17794;SDS011;9021;50.882;4.326;2023-04-03T09:07:10;5.47;;;3.80;;
17794;SDS011;9021;50.882;4.326;2023-04-03T09:09:42;4.00;;;2.90;;
17794;SDS011;9021;50.882;4.326;2023-04-03T09:14:39;7.43;;;3.63;;
17794;SDS011;9021;50.882;4.326;2023-04-03T09:22:55;8.00;;;2.70;;
17794;SDS011;9021;50.882;4.326;2023-04-03T09:25:31;4.30;;;2.60;;
17794;SDS011;9021;50.882;4.326;2023-04-03T09:28:00;5.82;;;2.38;;
17794;SDS011;9021;50.882;4.326;2023-04-03T09:30:26;3.97;;;2.33;;
17794;SDS011;9021;50.882;4.326;2023-04-03T09:32:54;3.65;;;2.35;;
17794;SDS011;9021;50.882;4.326;2023-04-03T09:35:31;4.30;;;2.35;;
17794;SDS011;9021;50.882;4.326;2023-04-03T09:38:14;3.85;;;2.17;;
17794;SDS011;9021;50.882;4.326;2023-04-03T09:40:42;6.03;;;2.15;;
17794;SDS011;9021;50.882;4.326;2023-04-03T09:43:19;4.80;;;2.15;;
17794;SDS011;9021;50.882;4.326;2023-04-03T09:45:50;3.33;;;1.70;;
17794;SDS011;9021;50.882;4.326;2023-04-03T09:48:21;4.70;;;2.42;;
17794;SDS011;9021;50.882;4.326;2023-04-03T09:55:56;5.07;;;2.13;;
17794;SDS011;9021;50.882;4.326;2023-04-03T09:58:24;7.10;;;2.20;;
17794;SDS011;9021;50.882;4.326;2023-04-03T10:00:55;4.50;;;2.00;;
17794;SDS011;9021;50.882;4.326;2023-04-03T10:03:24;5.82;;;2.08;;
17794;SDS011;9021;50.882;4.326;2023-04-03T10:05:56;3.03;;;1.73;;
17794;SDS011;9021;50.882;4.326;2023-04-03T10:08:27;6.13;;;2.10;;
17794;SDS011;9021;50.882;4.326;2023-04-03T10:13:50;3.83;;;1.88;;
17794;SDS011;9021;50.882;4.326;2023-04-03T10:16:26;5.43;;;1.60;;
17794;SDS011;9021;50.882;4.326;2023-04-03T10:22:19;4.47;;;1.63;;
17794;SDS011;9021;50.882;4.326;2023-04-03T10:30:31;2.22;;;1.50;;
17794;SDS011;9021;50.882;4.326;2023-04-03T10:36:13;2.83;;;1.60;;
17794;SDS011;9021;50.882;4.326;2023-04-03T10:44:47;7.90;;;1.75;;
17794;SDS011;9021;50.882;4.326;2023-04-03T10:58:32;5.07;;;2.00;;
17794;SDS011;9021;50.882;4.326;2023-04-03T11:01:11;7.03;;;2.30;;
17794;SDS011;9021;50.882;4.326;2023-04-03T11:03:49;3.85;;;1.75;;
17794;SDS011;9021;50.882;4.326;2023-04-03T11:06:19;4.13;;;1.48;;
17794;SDS011;9021;50.882;4.326;2023-04-03T11:08:50;3.65;;;1.63;;
17794;SDS011;9021;50.882;4.326;2023-04-03T11:11:26;10.50;;;1.63;;
17794;SDS011;9021;50.882;4.326;2023-04-03T11:13:57;37.80;;;5.70;;
17794;SDS011;9021;50.882;4.326;2023-04-03T11:16:47;4.87;;;1.77;;
17794;SDS011;9021;50.882;4.326;2023-04-03T11:19:18;10.93;;;2.75;;
17794;SDS011;9021;50.882;4.326;2023-04-03T11:21:56;5.22;;;2.03;;
17794;SDS011;9021;50.882;4.326;2023-04-03T11:24:31;46.78;;;9.40;;
17794;SDS011;9021;50.882;4.326;2023-04-03T11:26:58;5.22;;;1.80;;
17794;SDS011;9021;50.882;4.326;2023-04-03T11:29:38;3.35;;;1.55;;
17794;SDS011;9021;50.882;4.326;2023-04-03T11:35:13;7.10;;;1.60;;
17794;SDS011;9021;50.882;4.326;2023-04-03T11:37:44;6.03;;;1.90;;
17794;SDS011;9021;50.882;4.326;2023-04-03T11:42:46;5.60;;;1.35;;
17794;SDS011;9021;50.882;4.326;2023-04-03T11:45:56;2.28;;;1.20;;
17794;SDS011;9021;50.882;4.326;2023-04-03T11:50:46;8.20;;;1.75;;
17794;SDS011;9021;50.882;4.326;2023-04-03T11:58:18;4.65;;;1.33;;
17794;SDS011;9021;50.882;4.326;2023-04-03T12:05:50;3.30;;;1.00;;
17794;SDS011;9021;50.882;4.326;2023-04-03T12:08:26;4.07;;;1.70;;
17794;SDS011;9021;50.882;4.326;2023-04-03T12:11:21;26.58;;;10.15;;
17794;SDS011;9021;50.882;4.326;2023-04-03T12:24:25;6.00;;;1.70;;
17794;SDS011;9021;50.882;4.326;2023-04-03T12:34:48;3.90;;;1.48;;
17794;SDS011;9021;50.882;4.326;2023-04-03T12:40:00;2.95;;;1.20;;
17794;SDS011;9021;50.882;4.326;2023-04-03T12:45:16;5.13;;;1.30;;
17794;SDS011;9021;50.882;4.326;2023-04-03T12:47:48;3.78;;;1.50;;
17794;SDS011;9021;50.882;4.326;2023-04-03T12:50:17;2.58;;;1.10;;
17794;SDS011;9021;50.882;4.326;2023-04-03T12:52:45;5.00;;;1.30;;
17794;SDS011;9021;50.882;4.326;2023-04-03T12:55:16;5.90;;;1.08;;
17794;SDS011;9021;50.882;4.326;2023-04-03T12:57:43;5.85;;;1.40;;
17794;SDS011;9021;50.882;4.326;2023-04-03T13:03:05;33.30;;;8.13;;
17794;SDS011;9021;50.882;4.326;2023-04-03T13:05:44;3.65;;;1.10;;
17794;SDS011;9021;50.882;4.326;2023-04-03T13:08:12;2.53;;;1.40;;
17794;SDS011;9021;50.882;4.326;2023-04-03T13:10:43;2.10;;;1.00;;
17794;SDS011;9021;50.882;4.326;2023-04-03T13:15:47;6.10;;;2.83;;
17794;SDS011;9021;50.882;4.326;2023-04-03T13:20:52;4.30;;;1.20;;
17794;SDS011;9021;50.882;4.326;2023-04-03T13:23:22;3.72;;;0.90;;
17794;SDS011;9021;50.882;4.326;2023-04-03T13:28:15;2.53;;;0.93;;
17794;SDS011;9021;50.882;4.326;2023-04-03T13:30:56;2.95;;;1.10;;
17794;SDS011;9021;50.882;4.326;2023-04-03T13:33:35;19.90;;;2.60;;
17794;SDS011;9021;50.882;4.326;2023-04-03T13:36:16;97.30;;;4.55;;
17794;SDS011;9021;50.882;4.326;2023-04-03T13:41:40;3.28;;;1.10;;
17794;SDS011;9021;50.882;4.326;2023-04-03T13:44:14;25.58;;;2.03;;
17794;SDS011;9021;50.882;4.326;2023-04-03T13:46:53;5.85;;;1.48;;
17794;SDS011;9021;50.882;4.326;2023-04-03T13:49:29;4.25;;;0.93;;
17794;SDS011;9021;50.882;4.326;2023-04-03T13:52:20;8.55;;;1.95;;
17794;SDS011;9021;50.882;4.326;2023-04-03T13:57:52;13.20;;;1.75;;
17794;SDS011;9021;50.882;4.326;2023-04-03T14:02:56;7.70;;;1.35;;
17794;SDS011;9021;50.882;4.326;2023-04-03T14:05:23;157.43;;;15.88;;
17794;SDS011;9021;50.882;4.326;2023-04-03T14:07:50;5.18;;;1.33;;
17794;SDS011;9021;50.882;4.326;2023-04-03T14:10:17;52.13;;;5.57;;
17794;SDS011;9021;50.882;4.326;2023-04-03T14:12:43;25.45;;;2.80;;
17794;SDS011;9021;50.882;4.326;2023-04-03T14:15:23;2.28;;;1.02;;
17794;SDS011;9021;50.882;4.326;2023-04-03T14:17:52;10.05;;;1.83;;
17794;SDS011;9021;50.882;4.326;2023-04-03T14:20:19;9.45;;;1.65;;
17794;SDS011;9021;50.882;4.326;2023-04-03T14:22:46;5.75;;;1.20;;
17794;SDS011;9021;50.882;4.326;2023-04-03T14:25:13;5.00;;;1.27;;
17794;SDS011;9021;50.882;4.326;2023-04-03T14:27:43;9.30;;;1.95;;
17794;SDS011;9021;50.882;4.326;2023-04-03T14:32:42;7.13;;;1.52;;
17794;SDS011;9021;50.882;4.326;2023-04-03T14:35:07;4.63;;;1.40;;
17794;SDS011;9021;50.882;4.326;2023-04-03T14:37:33;3.38;;;1.30;;
17794;SDS011;9021;50.882;4.326;2023-04-03T14:40:01;7.68;;;1.73;;
17794;SDS011;9021;50.882;4.326;2023-04-03T14:42:33;5.22;;;1.00;;
17794;SDS011;9021;50.882;4.326;2023-04-03T14:45:08;9.48;;;1.50;;
17794;SDS011;9021;50.882;4.326;2023-04-03T14:47:37;1.88;;;0.90;;
17794;SDS011;9021;50.882;4.326;2023-04-03T14:50:07;2.78;;;1.20;;
17794;SDS011;9021;50.882;4.326;2023-04-03T14:52:36;2.00;;;1.05;;
17794;SDS011;9021;50.882;4.326;2023-04-03T14:55:03;1.73;;;1.13;;
17794;SDS011;9021;50.882;4.326;2023-04-03T14:57:31;4.15;;;1.00;;
17794;SDS011;9021;50.882;4.326;2023-04-03T14:59:57;4.80;;;1.15;;
17794;SDS011;9021;50.882;4.326;2023-04-03T15:02:30;7.70;;;2.22;;
17794;SDS011;9021;50.882;4.326;2023-04-03T15:04:59;3.58;;;1.40;;
17794;SDS011;9021;50.882;4.326;2023-04-03T15:07:26;4.82;;;1.00;;
17794;SDS011;9021;50.882;4.326;2023-04-03T15:09:54;3.85;;;1.20;;
17794;SDS011;9021;50.882;4.326;2023-04-03T15:12:21;2.83;;;1.17;;
17794;SDS011;9021;50.882;4.326;2023-04-03T15:14:48;4.50;;;1.40;;
17794;SDS011;9021;50.882;4.326;2023-04-03T15:17:15;2.53;;;0.80;;
17794;SDS011;9021;50.882;4.326;2023-04-03T15:19:44;2.58;;;1.15;;
17794;SDS011;9021;50.882;4.326;2023-04-03T15:24:40;7.90;;;1.15;;
17794;SDS011;9021;50.882;4.326;2023-04-03T15:27:06;3.20;;;0.98;;
17794;SDS011;9021;50.882;4.326;2023-04-03T15:29:34;3.20;;;1.15;;
17794;SDS011;9021;50.882;4.326;2023-04-03T15:32:00;2.03;;;1.00;;
17794;SDS011;9021;50.882;4.326;2023-04-03T15:34:25;2.17;;;0.90;;
17794;SDS011;9021;50.882;4.326;2023-04-03T15:36:52;5.00;;;1.20;;
17794;SDS011;9021;50.882;4.326;2023-04-03T15:39:18;3.45;;;0.90;;
17794;SDS011;9021;50.882;4.326;2023-04-03T15:41:44;1.88;;;0.95;;
17794;SDS011;9021;50.882;4.326;2023-04-03T15:44:10;4.22;;;1.30;;
17794;SDS011;9021;50.882;4.326;2023-04-03T15:46:37;1.90;;;0.90;;
17794;SDS011;9021;50.882;4.326;2023-04-03T15:49:03;2.70;;;1.30;;
17794;SDS011;9021;50.882;4.326;2023-04-03T15:53:55;3.70;;;1.23;;
17794;SDS011;9021;50.882;4.326;2023-04-03T15:56:21;5.65;;;2.47;;
17794;SDS011;9021;50.882;4.326;2023-04-03T15:58:46;2.22;;;1.23;;
17794;SDS011;9021;50.882;4.326;2023-04-03T16:01:12;8.52;;;1.67;;
17794;SDS011;9021;50.882;4.326;2023-04-03T16:03:39;4.05;;;1.13;;
17794;SDS011;9021;50.882;4.326;2023-04-03T16:06:09;1.85;;;1.20;;
17794;SDS011;9021;50.882;4.326;2023-04-03T16:08:36;2.13;;;1.10;;
17794;SDS011;9021;50.882;4.326;2023-04-03T16:11:02;2.10;;;1.40;;
17794;SDS011;9021;50.882;4.326;2023-04-03T16:13:28;4.75;;;1.10;;
17794;SDS011;9021;50.882;4.326;2023-04-03T16:15:54;1.35;;;0.80;;
17794;SDS011;9021;50.882;4.326;2023-04-03T16:18:20;5.13;;;0.98;;
17794;SDS011;9021;50.882;4.326;2023-04-03T16:20:46;3.90;;;1.40;;
17794;SDS011;9021;50.882;4.326;2023-04-03T16:23:11;6.03;;;1.15;;
17794;SDS011;9021;50.882;4.326;2023-04-03T16:25:37;3.53;;;1.17;;
17794;SDS011;9021;50.882;4.326;2023-04-03T16:28:03;5.63;;;1.40;;
17794;SDS011;9021;50.882;4.326;2023-04-03T16:30:29;2.53;;;1.27;;
17794;SDS011;9021;50.882;4.326;2023-04-03T16:32:55;2.33;;;1.10;;
17794;SDS011;9021;50.882;4.326;2023-04-03T16:35:21;4.82;;;1.05;;
17794;SDS011;9021;50.882;4.326;2023-04-03T16:37:47;3.05;;;1.23;;
17794;SDS011;9021;50.882;4.326;2023-04-03T16:40:13;4.60;;;1.27;;
17794;SDS011;9021;50.882;4.326;2023-04-03T16:42:39;2.47;;;1.60;;
17794;SDS011;9021;50.882;4.326;2023-04-03T16:45:08;3.28;;;1.35;;
17794;SDS011;9021;50.882;4.326;2023-04-03T16:47:36;1.98;;;1.05;;
17794;SDS011;9021;50.882;4.326;2023-04-03T16:50:02;2.83;;;1.50;;
17794;SDS011;9021;50.882;4.326;2023-04-03T16:52:28;2.40;;;1.30;;
17794;SDS011;9021;50.882;4.326;2023-04-03T16:54:54;3.20;;;1.20;;
17794;SDS011;9021;50.882;4.326;2023-04-03T16:57:20;2.55;;;1.30;;
17794;SDS011;9021;50.882;4.326;2023-04-03T16:59:49;3.88;;;1.20;;
17794;SDS011;9021;50.882;4.326;2023-04-03T17:02:15;2.67;;;1.10;;
17794;SDS011;9021;50.882;4.326;2023-04-03T17:04:41;4.13;;;1.42;;
17794;SDS011;9021;50.882;4.326;2023-04-03T17:07:07;3.42;;;1.67;;
17794;SDS011;9021;50.882;4.326;2023-04-03T17:09:33;3.00;;;1.40;;
17794;SDS011;9021;50.882;4.326;2023-04-03T17:11:59;9.07;;;1.52;;
17794;SDS011;9021;50.882;4.326;2023-04-03T17:14:25;9.73;;;1.70;;
17794;SDS011;9021;50.882;4.326;2023-04-03T17:16:50;3.03;;;1.20;;
17794;SDS011;9021;50.882;4.326;2023-04-03T17:19:17;5.45;;;1.48;;
17794;SDS011;9021;50.882;4.326;2023-04-03T17:21:43;3.03;;;1.23;;
17794;SDS011;9021;50.882;4.326;2023-04-03T17:24:10;9.55;;;1.70;;
17794;SDS011;9021;50.882;4.326;2023-04-03T17:26:37;2.53;;;1.00;;
17794;SDS011;9021;50.882;4.326;2023-04-03T17:29:04;2.53;;;1.40;;
17794;SDS011;9021;50.882;4.326;2023-04-03T17:31:40;4.15;;;1.35;;
17794;SDS011;9021;50.882;4.326;2023-04-03T17:34:06;3.28;;;1.60;;
17794;SDS011;9021;50.882;4.326;2023-04-03T17:36:32;2.88;;;1.80;;
17794;SDS011;9021;50.882;4.326;2023-04-03T17:38:58;5.10;;;1.40;;
17794;SDS011;9021;50.882;4.326;2023-04-03T17:41:24;2.78;;;1.08;;
17794;SDS011;9021;50.882;4.326;2023-04-03T17:43:56;4.88;;;1.85;;
17794;SDS011;9021;50.882;4.326;2023-04-03T17:46:23;2.58;;;1.45;;